createdAt,value
2022-09-30T00:01:01.414Z,7.20
2022-09-30T00:03:30.857Z,7.00
2022-09-30T00:06:04.336Z,8.27
2022-09-30T00:08:40.682Z,8.73
2022-09-30T00:11:13.526Z,8.20
2022-09-30T00:13:43.169Z,9.07
2022-09-30T00:16:14.129Z,9.17
2022-09-30T00:18:44.457Z,8.50
2022-09-30T00:21:15.771Z,8.67
2022-09-30T00:23:48.026Z,9.30
2022-09-30T00:26:20.263Z,9.47
2022-09-30T00:28:52.728Z,8.77
2022-09-30T00:31:23.259Z,10.20
2022-09-30T00:34:07.004Z,9.90
2022-09-30T00:36:38.202Z,9.50
2022-09-30T00:39:12.160Z,9.30
2022-09-30T00:41:42.562Z,9.83
2022-09-30T00:44:42.726Z,10.50
2022-09-30T00:47:39.013Z,9.97
2022-09-30T00:50:18.574Z,10.83
2022-09-30T00:52:50.993Z,10.97
2022-09-30T00:55:29.557Z,10.90
2022-09-30T00:57:59.465Z,11.27
2022-09-30T01:00:28.923Z,10.90
2022-09-30T01:02:58.650Z,10.57
2022-09-30T01:05:29.218Z,11.30
2022-09-30T01:08:00.807Z,10.80
2022-09-30T01:10:32.791Z,12.20
2022-09-30T01:13:02.493Z,11.87
2022-09-30T01:15:45.035Z,12.50
2022-09-30T01:18:20.115Z,11.43
2022-09-30T01:21:18.391Z,11.40
2022-09-30T01:24:03.111Z,12.00
2022-09-30T01:26:48.245Z,12.53
2022-09-30T01:29:33.799Z,12.90
2022-09-30T01:32:11.672Z,12.60
2022-09-30T01:34:49.160Z,12.23
2022-09-30T01:37:26.309Z,11.80
2022-09-30T01:40:07.009Z,12.80
2022-09-30T01:42:42.523Z,13.27
2022-09-30T01:45:15.498Z,14.10
2022-09-30T01:47:51.433Z,13.20
2022-09-30T01:50:23.708Z,13.97
2022-09-30T01:52:59.269Z,12.97
2022-09-30T01:55:32.367Z,14.10
2022-09-30T01:58:04.345Z,13.90
2022-09-30T02:00:35.081Z,13.97
2022-09-30T02:03:10.973Z,15.00
2022-09-30T02:05:43.918Z,14.53
2022-09-30T02:08:17.239Z,14.70
2022-09-30T02:10:49.904Z,14.73
2022-09-30T02:13:22.677Z,14.17
2022-09-30T02:15:55.797Z,14.97
2022-09-30T02:18:31.854Z,15.93
2022-09-30T02:21:04.414Z,16.37
2022-09-30T02:23:36.672Z,17.93
2022-09-30T02:26:08.633Z,15.63
2022-09-30T02:28:40.951Z,15.70
2022-09-30T02:31:11.452Z,16.17
2022-09-30T02:33:46.230Z,16.13
2022-09-30T02:36:22.090Z,15.30
2022-09-30T02:38:58.178Z,17.80
2022-09-30T02:41:29.146Z,16.60
2022-09-30T02:43:58.672Z,15.70
2022-09-30T02:46:30.513Z,20.23
2022-09-30T02:49:06.346Z,17.47
2022-09-30T02:51:43.831Z,17.30
2022-09-30T02:54:20.711Z,15.77
2022-09-30T02:56:54.870Z,17.63
2022-09-30T02:59:24.524Z,16.00
2022-09-30T03:01:54.357Z,15.67
2022-09-30T03:04:31.435Z,16.27
2022-09-30T03:07:00.841Z,15.83
2022-09-30T03:09:30.552Z,16.60
2022-09-30T03:12:08.201Z,16.60
2022-09-30T03:14:50.042Z,16.43
2022-09-30T03:17:33.365Z,17.20
2022-09-30T03:20:17.238Z,16.47
2022-09-30T03:23:22.483Z,16.33
2022-09-30T03:25:59.505Z,18.20
2022-09-30T03:28:31.865Z,16.77
2022-09-30T03:31:07.895Z,17.27
2022-09-30T03:33:44.490Z,17.00
2022-09-30T03:36:18.803Z,18.10
2022-09-30T03:38:52.760Z,17.50
2022-09-30T03:41:27.414Z,17.60
2022-09-30T03:44:01.294Z,18.00
2022-09-30T03:46:35.405Z,16.70
2022-09-30T03:49:07.419Z,18.57
2022-09-30T03:51:41.272Z,17.47
2022-09-30T03:54:12.327Z,17.60
2022-09-30T03:56:43.873Z,17.80
2022-09-30T03:59:15.181Z,17.60
2022-09-30T04:01:44.584Z,16.40
2022-09-30T04:04:14.017Z,17.80
2022-09-30T04:06:46.538Z,20.20
2022-09-30T04:09:16.060Z,19.83
2022-09-30T04:11:45.519Z,18.07
2022-09-30T04:14:14.961Z,18.37
2022-09-30T04:16:44.427Z,16.70
2022-09-30T04:19:13.875Z,17.30
2022-09-30T04:21:45.886Z,17.70
2022-09-30T04:24:15.257Z,19.23
2022-09-30T04:26:44.645Z,17.53
2022-09-30T04:29:14.165Z,17.67
2022-09-30T04:31:43.662Z,17.70
2022-09-30T04:34:13.145Z,17.40
2022-09-30T04:36:43.306Z,18.60
2022-09-30T04:39:15.327Z,17.10
2022-09-30T04:41:44.784Z,17.80
2022-09-30T04:44:14.148Z,18.93
2022-09-30T04:46:43.961Z,19.60
2022-09-30T04:49:13.342Z,19.53
2022-09-30T04:51:46.053Z,19.57
2022-09-30T04:54:18.745Z,18.03
2022-09-30T04:56:48.140Z,19.97
2022-09-30T04:59:17.548Z,18.30
2022-09-30T05:01:47.181Z,19.43
2022-09-30T05:04:16.680Z,17.17
2022-09-30T05:06:46.105Z,18.33
2022-09-30T05:09:18.124Z,17.80
2022-09-30T05:11:47.571Z,19.20
2022-09-30T05:14:16.956Z,18.47
2022-09-30T05:16:46.327Z,17.53
2022-09-30T05:19:15.701Z,20.00
2022-09-30T05:21:45.089Z,18.47
2022-09-30T05:24:14.518Z,20.00
2022-09-30T05:26:46.518Z,20.13
2022-09-30T05:29:16.209Z,18.57
2022-09-30T05:31:45.692Z,18.70
2022-09-30T05:34:16.768Z,20.60
2022-09-30T05:36:46.480Z,20.80
2022-09-30T05:39:15.918Z,20.53
2022-09-30T05:41:47.891Z,20.80
2022-09-30T05:44:17.310Z,21.73
2022-09-30T05:46:47.340Z,19.40
2022-09-30T05:49:16.958Z,21.67
2022-09-30T05:51:46.776Z,21.17
2022-09-30T05:54:16.382Z,21.20
2022-09-30T05:56:48.342Z,21.67
2022-09-30T05:59:17.726Z,21.23
2022-09-30T06:01:47.192Z,20.50
2022-09-30T06:04:16.662Z,23.40
2022-09-30T06:06:49.822Z,21.13
2022-09-30T06:09:19.464Z,21.93
2022-09-30T06:11:51.798Z,20.50
2022-09-30T06:14:22.913Z,22.53
2022-09-30T06:16:52.553Z,22.37
2022-09-30T06:19:22.111Z,24.40
2022-09-30T06:21:51.927Z,22.30
2022-09-30T06:24:21.307Z,22.40
2022-09-30T06:26:53.326Z,23.37
2022-09-30T06:29:22.870Z,20.70
2022-09-30T06:31:52.410Z,21.93
2022-09-30T06:34:22.120Z,21.27
2022-09-30T06:36:51.495Z,23.00
2022-09-30T06:39:20.899Z,22.10
2022-09-30T06:41:52.890Z,23.23
2022-09-30T06:44:22.281Z,22.77
2022-09-30T06:46:54.074Z,22.07
2022-09-30T06:49:24.085Z,21.87
2022-09-30T06:51:53.814Z,22.00
2022-09-30T06:54:23.233Z,21.40
2022-09-30T06:56:57.430Z,21.10
2022-09-30T06:59:27.205Z,22.00
2022-09-30T07:01:56.585Z,19.03
2022-09-30T07:04:25.964Z,21.03
2022-09-30T07:06:55.343Z,21.10
2022-09-30T07:09:25.765Z,19.73
2022-09-30T07:11:57.850Z,20.07
2022-09-30T07:14:27.355Z,19.60
2022-09-30T07:16:57.287Z,20.53
2022-09-30T07:19:26.710Z,18.40
2022-09-30T07:21:56.069Z,20.33
2022-09-30T07:24:25.842Z,20.10
2022-09-30T07:26:57.812Z,18.50
2022-09-30T07:29:27.598Z,17.23
2022-09-30T07:31:57.208Z,22.00
2022-09-30T07:34:26.697Z,17.60
2022-09-30T07:36:56.082Z,23.10
2022-09-30T07:39:25.452Z,18.17
2022-09-30T07:41:57.476Z,16.60
2022-09-30T07:44:26.919Z,15.10
2022-09-30T07:46:56.366Z,25.73
2022-09-30T07:49:26.908Z,42.63
2022-09-30T07:51:58.424Z,16.57
2022-09-30T07:54:29.733Z,14.60
2022-09-30T07:57:10.085Z,14.30
2022-09-30T07:59:41.333Z,14.07
2022-09-30T08:02:15.859Z,14.80
2022-09-30T08:04:45.493Z,14.07
2022-09-30T08:07:16.122Z,11.70
2022-09-30T08:09:45.643Z,10.80
2022-09-30T08:12:17.636Z,11.43
2022-09-30T08:14:47.301Z,11.13
2022-09-30T08:17:16.709Z,10.80
2022-09-30T08:19:46.285Z,10.07
2022-09-30T08:22:16.619Z,10.53
2022-09-30T08:24:45.974Z,9.77
2022-09-30T08:27:17.999Z,10.47
2022-09-30T08:29:55.258Z,8.53
2022-09-30T08:32:25.524Z,9.30
2022-09-30T08:34:54.890Z,8.50
2022-09-30T08:37:24.356Z,7.13
2022-09-30T08:39:53.743Z,7.20
2022-09-30T08:42:38.788Z,6.87
2022-09-30T08:45:17.542Z,7.03
2022-09-30T08:47:50.623Z,6.37
2022-09-30T08:50:26.147Z,6.10
2022-09-30T08:52:58.066Z,6.47
2022-09-30T08:55:29.278Z,5.73
2022-09-30T08:58:01.359Z,6.20
2022-09-30T09:00:31.349Z,6.60
2022-09-30T09:03:03.149Z,6.47
2022-09-30T09:05:40.350Z,6.50
2022-09-30T09:08:15.027Z,5.80
2022-09-30T09:10:48.458Z,5.83
2022-09-30T09:13:36.798Z,6.30
2022-09-30T09:16:11.626Z,5.67
2022-09-30T09:18:45.407Z,4.70
2022-09-30T09:21:24.071Z,5.10
2022-09-30T09:23:56.133Z,7.10
2022-09-30T09:26:26.522Z,5.03
2022-09-30T09:29:09.158Z,5.60
2022-09-30T09:31:38.679Z,6.00
2022-09-30T09:34:13.574Z,7.07
2022-09-30T09:36:51.593Z,4.20
2022-09-30T09:39:37.871Z,5.50
2022-09-30T09:42:13.200Z,5.20
2022-09-30T09:44:52.075Z,4.03
2022-09-30T09:47:21.504Z,4.73
2022-09-30T09:49:57.511Z,4.80
2022-09-30T09:52:47.338Z,7.67
2022-09-30T09:55:17.604Z,6.40
2022-09-30T09:57:47.693Z,4.90
2022-09-30T10:00:41.246Z,4.43
2022-09-30T10:03:19.151Z,3.47
2022-09-30T10:05:49.562Z,5.93
2022-09-30T10:08:20.771Z,3.80
2022-09-30T10:10:52.848Z,4.00
2022-09-30T10:13:24.303Z,3.67
2022-09-30T10:15:58.099Z,3.23
2022-09-30T10:18:30.061Z,3.77
2022-09-30T10:21:01.992Z,3.50
2022-09-30T10:23:33.710Z,3.50
2022-09-30T10:26:06.865Z,3.47
2022-09-30T10:28:38.114Z,3.33
2022-09-30T10:31:15.119Z,3.40
2022-09-30T10:33:46.633Z,4.23
2022-09-30T10:36:19.534Z,3.83
2022-09-30T10:38:55.515Z,4.10
2022-09-30T10:41:27.483Z,4.07
2022-09-30T10:43:58.852Z,5.10
2022-09-30T10:46:32.817Z,4.37
2022-09-30T10:49:03.039Z,5.03
2022-09-30T10:51:36.388Z,3.93
2022-09-30T10:54:06.864Z,4.53
2022-09-30T10:56:45.963Z,4.50
2022-09-30T10:59:34.032Z,3.60
2022-09-30T11:02:16.505Z,3.70
2022-09-30T11:04:49.001Z,3.53
2022-09-30T11:07:26.710Z,3.70
2022-09-30T11:10:01.119Z,4.10
2022-09-30T11:12:35.466Z,3.50
2022-09-30T11:15:11.138Z,3.67
2022-09-30T11:17:49.900Z,3.40
2022-09-30T11:20:23.833Z,3.60
2022-09-30T11:22:58.089Z,3.60
2022-09-30T11:25:31.685Z,3.20
2022-09-30T11:28:15.709Z,2.90
2022-09-30T11:30:50.024Z,2.60
2022-09-30T11:33:32.498Z,2.67
2022-09-30T11:36:08.381Z,2.23
2022-09-30T11:39:01.378Z,2.30
2022-09-30T11:41:33.979Z,8.70
2022-09-30T11:44:10.926Z,8.60
2022-09-30T11:47:01.127Z,12.63
2022-09-30T11:49:48.652Z,10.20
2022-09-30T11:52:22.261Z,4.90
2022-09-30T11:55:15.479Z,9.20
2022-09-30T11:57:50.132Z,5.00
2022-09-30T12:00:21.151Z,2.87
2022-09-30T12:02:53.237Z,2.50
2022-09-30T12:05:27.842Z,17.43
2022-09-30T12:08:01.579Z,3.40
2022-09-30T12:10:33.878Z,15.97
2022-09-30T12:13:06.697Z,2.47
2022-09-30T12:15:36.845Z,11.90
2022-09-30T12:18:08.817Z,25.40
2022-09-30T12:20:45.137Z,2.50
2022-09-30T12:23:20.261Z,2.70
2022-09-30T12:25:53.274Z,10.70
2022-09-30T12:28:42.353Z,3.00
2022-09-30T12:31:23.987Z,3.80
2022-09-30T12:34:03.948Z,8.63
2022-09-30T12:36:47.772Z,2.90
2022-09-30T12:39:40.674Z,3.10
2022-09-30T12:42:29.475Z,6.90
2022-09-30T12:45:24.097Z,3.10
2022-09-30T12:47:55.049Z,3.73
2022-09-30T12:50:26.874Z,3.27
2022-09-30T12:53:01.273Z,6.60
2022-09-30T12:55:32.778Z,4.60
2022-09-30T12:58:03.239Z,2.83
2022-09-30T13:00:34.733Z,2.70
2022-09-30T13:03:07.828Z,3.90
2022-09-30T13:05:56.358Z,6.23
2022-09-30T13:08:44.693Z,3.10
2022-09-30T13:11:46.879Z,5.87
2022-09-30T13:14:27.344Z,3.63
2022-09-30T13:17:28.090Z,4.57
2022-09-30T13:19:58.122Z,4.57
2022-09-30T13:23:00.518Z,5.60
2022-09-30T13:25:56.169Z,3.47
2022-09-30T13:28:35.193Z,4.40
2022-09-30T13:31:25.565Z,4.50
2022-09-30T13:34:12.041Z,4.27
2022-09-30T13:36:43.297Z,5.20
2022-09-30T13:39:24.135Z,4.00
2022-09-30T13:42:15.221Z,5.17
2022-09-30T13:44:57.650Z,2.43
2022-09-30T13:47:31.103Z,3.07
2022-09-30T13:50:04.874Z,3.10
2022-09-30T13:52:38.198Z,3.97
2022-09-30T13:55:11.146Z,2.90
2022-09-30T13:57:50.518Z,3.63
2022-09-30T14:00:21.452Z,3.20
2022-09-30T14:03:08.981Z,3.43
2022-09-30T14:05:46.211Z,5.20
2022-09-30T14:08:51.402Z,4.17
2022-09-30T14:11:42.183Z,3.80
2022-09-30T14:14:28.639Z,4.77
2022-09-30T14:17:15.299Z,3.70
2022-09-30T14:20:00.209Z,4.10
2022-09-30T14:22:30.185Z,4.00
2022-09-30T14:24:59.706Z,4.90
2022-09-30T14:27:45.416Z,4.77
2022-09-30T14:30:19.802Z,4.67
2022-09-30T14:32:51.054Z,4.50
2022-09-30T14:35:27.998Z,4.50
2022-09-30T14:37:59.853Z,4.80
2022-09-30T14:40:30.399Z,5.00
2022-09-30T14:43:02.815Z,6.50
2022-09-30T14:45:37.078Z,5.07
2022-09-30T14:48:11.741Z,5.27
2022-09-30T14:50:46.599Z,6.40
2022-09-30T14:53:30.142Z,5.70
2022-09-30T14:55:59.939Z,4.70
2022-09-30T14:58:31.269Z,5.93
2022-09-30T15:01:06.329Z,6.80
2022-09-30T15:03:38.212Z,6.40
2022-09-30T15:06:08.788Z,6.60
2022-09-30T15:08:38.319Z,6.90
2022-09-30T15:11:08.145Z,6.93
2022-09-30T15:13:37.550Z,6.03
2022-09-30T15:16:25.199Z,6.47
2022-09-30T15:18:55.161Z,6.30
2022-09-30T15:21:25.668Z,6.20
2022-09-30T15:23:57.303Z,5.63
2022-09-30T15:26:28.726Z,6.17
2022-09-30T15:28:58.131Z,5.20
2022-09-30T15:31:31.248Z,5.57
2022-09-30T15:34:08.688Z,8.30
2022-09-30T15:36:38.933Z,10.27
2022-09-30T15:39:08.890Z,13.77
2022-09-30T15:41:42.260Z,14.93
2022-09-30T15:44:19.733Z,8.60
2022-09-30T15:47:08.410Z,8.17
2022-09-30T15:49:49.716Z,8.07
2022-09-30T15:52:36.477Z,11.20
2022-09-30T15:55:38.703Z,6.43
2022-09-30T15:58:08.549Z,6.20
2022-09-30T16:00:40.583Z,6.47
2022-09-30T16:03:29.254Z,6.20
2022-09-30T16:06:09.078Z,6.90
2022-09-30T16:08:44.519Z,6.00
2022-09-30T16:11:21.818Z,6.23
2022-09-30T16:13:51.938Z,6.40
2022-09-30T16:16:24.088Z,5.50
2022-09-30T16:18:57.461Z,5.40
2022-09-30T16:21:50.808Z,6.27
2022-09-30T16:24:45.200Z,5.90
2022-09-30T16:27:33.985Z,5.43
2022-09-30T16:30:03.810Z,5.17
2022-09-30T16:32:36.946Z,6.03
2022-09-30T16:35:10.329Z,6.10
2022-09-30T16:37:42.898Z,5.73
2022-09-30T16:40:19.926Z,6.27
2022-09-30T16:42:49.377Z,7.20
2022-09-30T16:45:19.361Z,5.80
2022-09-30T16:47:49.638Z,6.20
2022-09-30T16:50:33.122Z,6.10
2022-09-30T16:53:02.512Z,6.33
2022-09-30T16:55:32.552Z,6.77
2022-09-30T16:58:04.619Z,6.93
2022-09-30T17:00:34.871Z,6.90
2022-09-30T17:03:04.363Z,9.40
2022-09-30T17:05:36.314Z,7.10
2022-09-30T17:08:05.825Z,7.67
2022-09-30T17:10:36.630Z,6.83
2022-09-30T17:13:06.138Z,6.57
2022-09-30T17:15:36.166Z,7.30
2022-09-30T17:18:08.828Z,7.20
2022-09-30T17:20:44.650Z,6.87
2022-09-30T17:23:14.313Z,7.40
2022-09-30T17:25:44.382Z,7.37
2022-09-30T17:28:14.578Z,6.97
2022-09-30T17:30:44.432Z,6.73
2022-09-30T17:33:13.812Z,7.20
2022-09-30T17:35:45.773Z,7.40
2022-09-30T17:38:16.082Z,7.23
2022-09-30T17:40:57.934Z,8.30
2022-09-30T17:43:27.324Z,7.07
2022-09-30T17:46:01.813Z,7.17
2022-09-30T17:48:31.397Z,7.87
2022-09-30T17:51:03.434Z,8.20
2022-09-30T17:53:32.827Z,7.93
2022-09-30T17:56:09.266Z,8.07
2022-09-30T17:58:39.835Z,8.37
2022-09-30T18:01:09.920Z,8.70
2022-09-30T18:03:40.034Z,8.70
2022-09-30T18:06:12.098Z,7.77
2022-09-30T18:08:41.455Z,8.97
2022-09-30T18:11:11.606Z,8.10
2022-09-30T18:13:41.066Z,9.40
2022-09-30T18:16:11.210Z,8.73
2022-09-30T18:18:40.664Z,8.47
2022-09-30T18:21:14.536Z,8.50
2022-09-30T18:23:43.914Z,8.77
2022-09-30T18:26:13.294Z,8.97
2022-09-30T18:28:43.074Z,7.80
2022-09-30T18:31:18.237Z,9.20
2022-09-30T18:33:51.506Z,8.70
2022-09-30T18:36:23.864Z,9.37
2022-09-30T18:38:53.856Z,8.20
2022-09-30T18:41:23.241Z,7.90
2022-09-30T18:43:57.122Z,8.13
2022-09-30T18:46:26.513Z,7.80
2022-09-30T18:48:56.143Z,8.00
2022-09-30T18:51:29.188Z,8.60
2022-09-30T18:54:00.182Z,7.70
2022-09-30T18:56:31.972Z,8.40
2022-09-30T18:59:02.307Z,7.83
2022-09-30T19:01:32.976Z,9.40
2022-09-30T19:04:04.918Z,99.83
2022-09-30T19:06:39.485Z,15.80
2022-09-30T19:09:09.187Z,22.00
2022-09-30T19:11:42.709Z,17.80
2022-09-30T19:14:12.842Z,8.60
2022-09-30T19:16:43.487Z,9.63
2022-09-30T19:19:13.585Z,11.70
2022-09-30T19:21:45.538Z,9.53
2022-09-30T19:24:17.009Z,11.33
2022-09-30T19:26:46.827Z,8.57
2022-09-30T19:29:18.503Z,9.07
2022-09-30T19:31:47.964Z,11.17
2022-09-30T19:34:29.764Z,10.80
2022-09-30T19:37:03.410Z,12.57
2022-09-30T19:39:44.826Z,14.40
2022-09-30T19:42:18.162Z,8.50
2022-09-30T19:44:47.562Z,7.73
2022-09-30T19:47:16.934Z,7.83
2022-09-30T19:49:46.322Z,7.33
2022-09-30T19:52:22.335Z,7.90
2022-09-30T19:54:52.282Z,7.40
2022-09-30T19:57:22.980Z,7.90
2022-09-30T19:59:53.380Z,6.80
2022-09-30T20:02:23.201Z,8.63
2022-09-30T20:04:53.850Z,7.77
2022-09-30T20:07:25.894Z,7.23
2022-09-30T20:09:55.256Z,7.20
2022-09-30T20:12:24.618Z,7.83
2022-09-30T20:15:06.486Z,6.60
2022-09-30T20:17:35.902Z,8.20
2022-09-30T20:20:17.813Z,7.10
2022-09-30T20:22:49.756Z,8.93
2022-09-30T20:25:19.299Z,9.87
2022-09-30T20:27:52.179Z,10.33
2022-09-30T20:30:22.107Z,7.97
2022-09-30T20:32:51.521Z,7.80
2022-09-30T20:35:21.289Z,7.60
2022-09-30T20:37:54.073Z,8.07
2022-09-30T20:40:23.517Z,9.20
2022-09-30T20:42:54.005Z,9.20
2022-09-30T20:45:25.816Z,7.90
2022-09-30T20:47:55.311Z,8.30
2022-09-30T20:50:37.241Z,7.67
2022-09-30T20:53:11.337Z,7.43
2022-09-30T20:55:43.382Z,8.23
2022-09-30T20:58:13.704Z,9.13
2022-09-30T21:00:44.146Z,7.40
2022-09-30T21:03:15.235Z,8.30
2022-09-30T21:05:53.806Z,7.63
2022-09-30T21:08:26.094Z,7.57
2022-09-30T21:10:56.347Z,7.83
2022-09-30T21:13:25.789Z,8.27
2022-09-30T21:16:01.876Z,7.60
2022-09-30T21:18:31.510Z,7.47
2022-09-30T21:21:01.698Z,7.50
2022-09-30T21:23:34.894Z,9.00
2022-09-30T21:26:06.078Z,9.00
2022-09-30T21:28:36.045Z,7.77
2022-09-30T21:31:08.175Z,8.53
2022-09-30T21:33:38.109Z,7.37
2022-09-30T21:36:08.985Z,8.40
2022-09-30T21:38:40.947Z,8.30
2022-09-30T21:41:10.310Z,10.27
2022-09-30T21:43:40.233Z,7.90
2022-09-30T21:46:15.738Z,8.23
2022-09-30T21:48:46.056Z,7.63
2022-09-30T21:51:16.135Z,7.60
2022-09-30T21:53:48.805Z,7.53
2022-09-30T21:56:20.071Z,9.40
2022-09-30T21:58:50.675Z,10.37
2022-09-30T22:01:20.086Z,9.10
2022-09-30T22:03:49.486Z,10.23
2022-09-30T22:06:18.897Z,10.07
2022-09-30T22:08:50.890Z,9.30
2022-09-30T22:11:24.561Z,9.57
2022-09-30T22:13:55.656Z,11.37
2022-09-30T22:16:27.098Z,18.90
2022-09-30T22:18:57.389Z,8.60
2022-09-30T22:21:26.871Z,8.77
2022-09-30T22:23:59.409Z,8.70
2022-09-30T22:26:29.745Z,8.67
2022-09-30T22:29:00.842Z,8.37
2022-09-30T22:31:32.190Z,8.73
2022-09-30T22:34:16.349Z,11.30
2022-09-30T22:36:58.593Z,9.00
2022-09-30T22:39:30.967Z,9.37
2022-09-30T22:42:01.088Z,8.00
2022-09-30T22:44:31.778Z,8.60
2022-09-30T22:47:01.376Z,8.43
2022-09-30T22:49:32.237Z,7.77
2022-09-30T22:52:03.655Z,8.13
2022-09-30T22:54:37.490Z,8.17
2022-09-30T22:57:07.852Z,8.37
2022-09-30T22:59:38.211Z,8.53
2022-09-30T23:02:08.308Z,8.27
2022-09-30T23:04:37.730Z,8.17
2022-09-30T23:07:08.222Z,6.80
2022-09-30T23:09:40.199Z,7.53
2022-09-30T23:12:09.555Z,7.67
2022-09-30T23:14:38.919Z,7.37
2022-09-30T23:17:08.288Z,6.73
2022-09-30T23:19:37.662Z,6.87
2022-09-30T23:22:07.226Z,6.30
2022-09-30T23:24:36.616Z,6.70
2022-09-30T23:27:08.571Z,6.50
2022-09-30T23:29:37.950Z,7.10
2022-09-30T23:32:07.424Z,8.20
2022-09-30T23:34:36.874Z,6.83
2022-09-30T23:37:06.269Z,8.20
2022-09-30T23:39:35.644Z,6.60
2022-09-30T23:42:05.010Z,7.10
2022-09-30T23:44:36.989Z,6.40
2022-09-30T23:47:21.583Z,6.43
2022-09-30T23:49:51.034Z,5.90
2022-09-30T23:52:20.515Z,7.03
2022-09-30T23:54:49.885Z,6.60
2022-09-30T23:57:19.242Z,9.27
2022-09-30T23:59:51.190Z,5.90
